sensor_id;sensor_type;location;lat;lon;timestamp;P1;P2;P0
59179;PMS7003;44956;52.422;20.818;2023-06-26T00:02:49;31.00;29.00;19.25
59179;PMS7003;44956;52.422;20.818;2023-06-26T00:05:52;17.75;14.75;13.00
59179;PMS7003;44956;52.422;20.818;2023-06-26T00:08:55;26.00;25.50;18.25
59179;PMS7003;44956;52.422;20.818;2023-06-26T00:11:58;27.50;26.50;18.75
59179;PMS7003;44956;52.422;20.818;2023-06-26T00:15:01;26.00;25.25;18.50
59179;PMS7003;44956;52.422;20.818;2023-06-26T00:18:04;30.00;27.75;17.50
59179;PMS7003;44956;52.422;20.818;2023-06-26T00:21:06;27.25;26.25;18.00
59179;PMS7003;44956;52.422;20.818;2023-06-26T00:24:10;26.75;24.75;17.00
59179;PMS7003;44956;52.422;20.818;2023-06-26T00:27:12;22.00;22.00;14.25
59179;PMS7003;44956;52.422;20.818;2023-06-26T00:30:18;22.00;22.00;16.25
59179;PMS7003;44956;52.422;20.818;2023-06-26T00:33:20;32.25;27.25;17.50
59179;PMS7003;44956;52.422;20.818;2023-06-26T00:36:25;25.25;24.50;17.75
59179;PMS7003;44956;52.422;20.818;2023-06-26T00:39:28;28.75;27.75;19.00
59179;PMS7003;44956;52.422;20.818;2023-06-26T00:42:31;30.50;26.25;16.50
59179;PMS7003;44956;52.422;20.818;2023-06-26T00:45:34;28.75;28.75;18.25
59179;PMS7003;44956;52.422;20.818;2023-06-26T00:48:45;26.25;24.50;16.25
59179;PMS7003;44956;52.422;20.818;2023-06-26T00:51:48;24.75;24.75;16.00
59179;PMS7003;44956;52.422;20.818;2023-06-26T00:54:51;27.50;27.50;18.25
59179;PMS7003;44956;52.422;20.818;2023-06-26T00:57:54;28.00;27.00;19.00
59179;PMS7003;44956;52.422;20.818;2023-06-26T01:00:57;29.50;26.50;17.25
59179;PMS7003;44956;52.422;20.818;2023-06-26T01:04:01;32.00;27.00;18.75
59179;PMS7003;44956;52.422;20.818;2023-06-26T01:07:04;23.75;21.00;16.25
59179;PMS7003;44956;52.422;20.818;2023-06-26T01:10:09;24.50;22.75;15.50
59179;PMS7003;44956;52.422;20.818;2023-06-26T01:13:12;25.75;24.50;18.00
59179;PMS7003;44956;52.422;20.818;2023-06-26T01:16:16;21.50;21.00;16.50
59179;PMS7003;44956;52.422;20.818;2023-06-26T01:19:26;27.75;27.25;17.50
59179;PMS7003;44956;52.422;20.818;2023-06-26T01:25:53;23.75;23.75;16.75
59179;PMS7003;44956;52.422;20.818;2023-06-26T01:28:58;27.00;25.50;17.25
59179;PMS7003;44956;52.422;20.818;2023-06-26T01:32:01;25.25;23.25;16.25
59179;PMS7003;44956;52.422;20.818;2023-06-26T01:35:05;25.50;25.00;16.00
59179;PMS7003;44956;52.422;20.818;2023-06-26T01:41:16;26.25;24.00;16.25
59179;PMS7003;44956;52.422;20.818;2023-06-26T01:44:26;26.25;25.50;15.75
59179;PMS7003;44956;52.422;20.818;2023-06-26T01:47:30;26.00;24.25;17.00
59179;PMS7003;44956;52.422;20.818;2023-06-26T01:50:34;24.50;22.25;14.75
59179;PMS7003;44956;52.422;20.818;2023-06-26T01:53:41;30.00;28.50;18.50
59179;PMS7003;44956;52.422;20.818;2023-06-26T01:56:49;29.25;28.50;18.75
59179;PMS7003;44956;52.422;20.818;2023-06-26T01:59:53;24.25;24.25;15.00
59179;PMS7003;44956;52.422;20.818;2023-06-26T02:02:58;23.50;23.50;18.00
59179;PMS7003;44956;52.422;20.818;2023-06-26T02:06:00;28.75;27.25;16.00
59179;PMS7003;44956;52.422;20.818;2023-06-26T02:09:03;29.00;25.00;16.75
59179;PMS7003;44956;52.422;20.818;2023-06-26T02:12:06;27.75;27.00;19.00
59179;PMS7003;44956;52.422;20.818;2023-06-26T02:15:09;30.25;28.00;17.75
59179;PMS7003;44956;52.422;20.818;2023-06-26T02:18:13;27.00;23.00;15.00
59179;PMS7003;44956;52.422;20.818;2023-06-26T02:21:16;23.50;22.25;15.50
59179;PMS7003;44956;52.422;20.818;2023-06-26T02:24:18;36.00;29.50;17.00
59179;PMS7003;44956;52.422;20.818;2023-06-26T02:27:22;26.75;24.75;17.25
59179;PMS7003;44956;52.422;20.818;2023-06-26T02:30:27;25.50;23.75;15.00
59179;PMS7003;44956;52.422;20.818;2023-06-26T02:33:30;24.00;23.75;17.75
59179;PMS7003;44956;52.422;20.818;2023-06-26T02:36:32;26.00;26.00;15.00
59179;PMS7003;44956;52.422;20.818;2023-06-26T02:39:39;28.75;25.75;15.00
59179;PMS7003;44956;52.422;20.818;2023-06-26T02:42:44;25.25;25.00;17.00
59179;PMS7003;44956;52.422;20.818;2023-06-26T02:45:47;26.00;22.75;16.00
59179;PMS7003;44956;52.422;20.818;2023-06-26T02:48:49;28.00;27.50;16.00
59179;PMS7003;44956;52.422;20.818;2023-06-26T02:51:52;24.75;24.75;15.50
59179;PMS7003;44956;52.422;20.818;2023-06-26T02:55:00;26.00;25.75;17.00
59179;PMS7003;44956;52.422;20.818;2023-06-26T02:58:03;26.75;23.75;15.75
59179;PMS7003;44956;52.422;20.818;2023-06-26T03:01:06;26.75;25.50;16.50
59179;PMS7003;44956;52.422;20.818;2023-06-26T03:04:09;26.75;23.75;16.00
59179;PMS7003;44956;52.422;20.818;2023-06-26T03:07:12;25.75;24.75;15.25
59179;PMS7003;44956;52.422;20.818;2023-06-26T03:10:16;27.25;25.00;17.00
59179;PMS7003;44956;52.422;20.818;2023-06-26T03:13:19;29.75;25.50;18.00
59179;PMS7003;44956;52.422;20.818;2023-06-26T03:16:22;25.00;25.00;16.00
59179;PMS7003;44956;52.422;20.818;2023-06-26T03:19:25;27.00;24.25;16.50
59179;PMS7003;44956;52.422;20.818;2023-06-26T03:22:46;23.00;23.00;17.00
59179;PMS7003;44956;52.422;20.818;2023-06-26T03:25:51;28.25;28.25;20.25
59179;PMS7003;44956;52.422;20.818;2023-06-26T03:29:00;29.50;25.50;14.50
59179;PMS7003;44956;52.422;20.818;2023-06-26T03:32:03;29.00;25.25;18.00
59179;PMS7003;44956;52.422;20.818;2023-06-26T03:35:06;27.50;24.75;16.75
59179;PMS7003;44956;52.422;20.818;2023-06-26T03:38:09;28.00;25.25;17.75
59179;PMS7003;44956;52.422;20.818;2023-06-26T03:41:12;30.00;29.50;17.25
59179;PMS7003;44956;52.422;20.818;2023-06-26T03:44:15;28.00;27.00;17.75
59179;PMS7003;44956;52.422;20.818;2023-06-26T03:47:22;28.00;28.00;18.50
59179;PMS7003;44956;52.422;20.818;2023-06-26T03:50:24;30.25;29.25;18.75
59179;PMS7003;44956;52.422;20.818;2023-06-26T03:53:27;31.00;27.50;18.00
59179;PMS7003;44956;52.422;20.818;2023-06-26T03:56:30;28.25;27.75;18.50
59179;PMS7003;44956;52.422;20.818;2023-06-26T03:59:33;32.75;26.25;17.75
59179;PMS7003;44956;52.422;20.818;2023-06-26T04:02:36;27.00;25.00;18.25
59179;PMS7003;44956;52.422;20.818;2023-06-26T04:05:40;25.00;24.50;16.00
59179;PMS7003;44956;52.422;20.818;2023-06-26T04:08:42;35.25;30.75;18.25
59179;PMS7003;44956;52.422;20.818;2023-06-26T04:11:45;28.25;26.50;17.25
59179;PMS7003;44956;52.422;20.818;2023-06-26T04:14:49;29.50;28.75;19.50
59179;PMS7003;44956;52.422;20.818;2023-06-26T04:17:52;30.75;28.00;18.00
59179;PMS7003;44956;52.422;20.818;2023-06-26T04:21:10;31.25;29.00;16.50
59179;PMS7003;44956;52.422;20.818;2023-06-26T04:24:14;29.00;26.50;16.75
59179;PMS7003;44956;52.422;20.818;2023-06-26T04:27:17;28.00;27.00;18.25
59179;PMS7003;44956;52.422;20.818;2023-06-26T04:30:20;33.25;29.75;18.75
59179;PMS7003;44956;52.422;20.818;2023-06-26T04:33:23;24.25;23.50;17.00
59179;PMS7003;44956;52.422;20.818;2023-06-26T04:36:27;27.25;27.00;18.00
59179;PMS7003;44956;52.422;20.818;2023-06-26T04:39:30;30.25;29.50;18.00
59179;PMS7003;44956;52.422;20.818;2023-06-26T04:42:33;26.25;26.00;19.25
59179;PMS7003;44956;52.422;20.818;2023-06-26T04:45:36;27.75;27.00;18.00
59179;PMS7003;44956;52.422;20.818;2023-06-26T04:48:39;32.25;26.50;18.75
59179;PMS7003;44956;52.422;20.818;2023-06-26T04:51:42;28.50;25.50;19.25
59179;PMS7003;44956;52.422;20.818;2023-06-26T04:54:45;21.50;21.00;16.00
59179;PMS7003;44956;52.422;20.818;2023-06-26T04:57:47;24.75;24.75;16.25
59179;PMS7003;44956;52.422;20.818;2023-06-26T05:00:50;30.25;27.75;19.00
59179;PMS7003;44956;52.422;20.818;2023-06-26T05:03:52;28.75;27.50;20.00
59179;PMS7003;44956;52.422;20.818;2023-06-26T05:06:56;29.50;27.00;20.50
59179;PMS7003;44956;52.422;20.818;2023-06-26T05:09:59;26.75;25.00;17.25
59179;PMS7003;44956;52.422;20.818;2023-06-26T05:13:02;26.75;22.75;14.75
59179;PMS7003;44956;52.422;20.818;2023-06-26T05:16:04;28.50;24.75;17.25
59179;PMS7003;44956;52.422;20.818;2023-06-26T05:19:07;29.00;28.50;17.50
59179;PMS7003;44956;52.422;20.818;2023-06-26T05:22:10;24.50;23.00;17.00
59179;PMS7003;44956;52.422;20.818;2023-06-26T05:25:15;29.00;29.00;18.00
59179;PMS7003;44956;52.422;20.818;2023-06-26T05:28:18;23.25;21.25;15.25
59179;PMS7003;44956;52.422;20.818;2023-06-26T05:31:21;24.00;23.75;17.00
59179;PMS7003;44956;52.422;20.818;2023-06-26T05:34:24;25.00;25.00;17.00
59179;PMS7003;44956;52.422;20.818;2023-06-26T05:37:28;31.00;28.50;18.50
59179;PMS7003;44956;52.422;20.818;2023-06-26T05:40:31;29.00;28.25;18.25
59179;PMS7003;44956;52.422;20.818;2023-06-26T05:43:36;25.75;24.50;17.00
59179;PMS7003;44956;52.422;20.818;2023-06-26T05:46:38;22.50;21.75;17.00
59179;PMS7003;44956;52.422;20.818;2023-06-26T05:49:41;26.25;24.00;15.50
59179;PMS7003;44956;52.422;20.818;2023-06-26T05:52:44;21.00;20.25;14.75
59179;PMS7003;44956;52.422;20.818;2023-06-26T05:55:47;19.50;18.25;14.25
59179;PMS7003;44956;52.422;20.818;2023-06-26T05:58:50;22.25;22.25;13.50
59179;PMS7003;44956;52.422;20.818;2023-06-26T06:01:54;18.75;18.75;13.00
59179;PMS7003;44956;52.422;20.818;2023-06-26T06:04:56;17.25;17.25;12.00
59179;PMS7003;44956;52.422;20.818;2023-06-26T06:07:59;17.00;17.00;13.50
59179;PMS7003;44956;52.422;20.818;2023-06-26T06:11:02;18.50;18.50;13.00
59179;PMS7003;44956;52.422;20.818;2023-06-26T06:14:05;15.33;15.33;11.67
59179;PMS7003;44956;52.422;20.818;2023-06-26T06:17:07;19.00;17.33;13.00
59179;PMS7003;44956;52.422;20.818;2023-06-26T06:20:10;18.33;18.33;14.00
59179;PMS7003;44956;52.422;20.818;2023-06-26T06:23:13;17.33;17.33;13.00
59179;PMS7003;44956;52.422;20.818;2023-06-26T06:26:16;17.00;16.00;11.67
59179;PMS7003;44956;52.422;20.818;2023-06-26T06:29:19;19.00;17.00;12.33
59179;PMS7003;44956;52.422;20.818;2023-06-26T06:32:22;22.00;18.00;13.00
59179;PMS7003;44956;52.422;20.818;2023-06-26T06:35:24;16.67;16.67;12.00
59179;PMS7003;44956;52.422;20.818;2023-06-26T06:38:31;16.00;16.00;11.00
59179;PMS7003;44956;52.422;20.818;2023-06-26T06:41:34;17.00;15.33;12.33
59179;PMS7003;44956;52.422;20.818;2023-06-26T06:44:40;19.00;19.00;14.00
59179;PMS7003;44956;52.422;20.818;2023-06-26T06:47:43;19.00;17.00;13.00
59179;PMS7003;44956;52.422;20.818;2023-06-26T06:50:46;19.00;19.00;14.00
59179;PMS7003;44956;52.422;20.818;2023-06-26T06:53:48;18.33;17.33;12.00
59179;PMS7003;44956;52.422;20.818;2023-06-26T06:56:51;15.33;13.67;10.00
59179;PMS7003;44956;52.422;20.818;2023-06-26T06:59:54;15.00;14.00;10.00
59179;PMS7003;44956;52.422;20.818;2023-06-26T07:02:57;15.33;13.67;10.00
59179;PMS7003;44956;52.422;20.818;2023-06-26T07:06:02;13.00;13.00;8.33
59179;PMS7003;44956;52.422;20.818;2023-06-26T07:09:05;14.33;13.33;10.00
59179;PMS7003;44956;52.422;20.818;2023-06-26T07:12:08;12.67;12.67;9.67
59179;PMS7003;44956;52.422;20.818;2023-06-26T07:15:11;12.67;12.67;9.33
59179;PMS7003;44956;52.422;20.818;2023-06-26T07:18:14;12.00;12.00;8.00
59179;PMS7003;44956;52.422;20.818;2023-06-26T07:21:17;11.67;11.67;8.33
59179;PMS7003;44956;52.422;20.818;2023-06-26T07:24:20;11.00;10.00;7.00
59179;PMS7003;44956;52.422;20.818;2023-06-26T07:27:23;11.33;10.33;7.33
59179;PMS7003;44956;52.422;20.818;2023-06-26T07:30:25;11.00;11.00;8.33
59179;PMS7003;44956;52.422;20.818;2023-06-26T07:33:28;13.67;13.67;8.33
59179;PMS7003;44956;52.422;20.818;2023-06-26T07:36:31;10.67;10.67;7.00
59179;PMS7003;44956;52.422;20.818;2023-06-26T07:39:34;7.00;7.00;6.00
59179;PMS7003;44956;52.422;20.818;2023-06-26T07:42:37;9.50;9.50;8.00
59179;PMS7003;44956;52.422;20.818;2023-06-26T07:45:39;11.50;11.50;8.50
59179;PMS7003;44956;52.422;20.818;2023-06-26T07:48:42;13.25;10.00;6.50
59179;PMS7003;44956;52.422;20.818;2023-06-26T07:51:45;10.75;10.75;7.00
59179;PMS7003;44956;52.422;20.818;2023-06-26T07:54:48;10.50;10.50;6.00
59179;PMS7003;44956;52.422;20.818;2023-06-26T07:57:50;8.50;8.50;6.75
59179;PMS7003;44956;52.422;20.818;2023-06-26T08:00:54;8.00;7.25;3.75
59179;PMS7003;44956;52.422;20.818;2023-06-26T08:03:57;8.25;8.25;6.00
59179;PMS7003;44956;52.422;20.818;2023-06-26T08:07:00;11.00;8.00;5.75
59179;PMS7003;44956;52.422;20.818;2023-06-26T08:10:04;9.75;9.75;7.50
59179;PMS7003;44956;52.422;20.818;2023-06-26T08:13:07;10.00;10.00;6.75
59179;PMS7003;44956;52.422;20.818;2023-06-26T08:16:10;10.00;10.00;6.75
59179;PMS7003;44956;52.422;20.818;2023-06-26T08:19:13;9.00;9.00;6.00
59179;PMS7003;44956;52.422;20.818;2023-06-26T08:22:16;9.00;9.00;6.75
59179;PMS7003;44956;52.422;20.818;2023-06-26T08:25:20;10.00;10.00;6.00
59179;PMS7003;44956;52.422;20.818;2023-06-26T08:28:23;10.00;10.00;7.25
59179;PMS7003;44956;52.422;20.818;2023-06-26T08:31:25;10.25;10.25;6.00
59179;PMS7003;44956;52.422;20.818;2023-06-26T08:34:28;8.75;8.75;6.25
59179;PMS7003;44956;52.422;20.818;2023-06-26T08:37:31;9.75;9.75;6.00
59179;PMS7003;44956;52.422;20.818;2023-06-26T08:40:35;11.00;11.00;8.00
59179;PMS7003;44956;52.422;20.818;2023-06-26T08:43:39;11.75;11.25;7.00
59179;PMS7003;44956;52.422;20.818;2023-06-26T08:46:42;9.00;9.00;6.75
59179;PMS7003;44956;52.422;20.818;2023-06-26T08:56:28;11.00;9.00;6.00
59179;PMS7003;44956;52.422;20.818;2023-06-26T08:59:35;7.50;7.50;6.00
59179;PMS7003;44956;52.422;20.818;2023-06-26T09:02:38;10.25;10.00;6.00
59179;PMS7003;44956;52.422;20.818;2023-06-26T09:05:44;8.75;8.75;5.25
59179;PMS7003;44956;52.422;20.818;2023-06-26T09:08:47;12.50;9.75;6.25
59179;PMS7003;44956;52.422;20.818;2023-06-26T09:11:50;8.50;8.50;4.75
59179;PMS7003;44956;52.422;20.818;2023-06-26T09:14:53;8.00;8.00;5.00
59179;PMS7003;44956;52.422;20.818;2023-06-26T09:17:58;9.50;9.50;6.00
59179;PMS7003;44956;52.422;20.818;2023-06-26T09:21:06;9.25;8.00;5.00
59179;PMS7003;44956;52.422;20.818;2023-06-26T09:24:10;7.00;7.00;5.00
59179;PMS7003;44956;52.422;20.818;2023-06-26T09:27:12;8.25;8.25;5.00
59179;PMS7003;44956;52.422;20.818;2023-06-26T09:30:18;7.50;7.50;5.00
59179;PMS7003;44956;52.422;20.818;2023-06-26T09:33:21;7.25;7.25;5.00
59179;PMS7003;44956;52.422;20.818;2023-06-26T09:36:26;8.00;8.00;5.25
59179;PMS7003;44956;52.422;20.818;2023-06-26T09:39:30;7.00;7.00;5.00
59179;PMS7003;44956;52.422;20.818;2023-06-26T09:42:33;7.25;7.25;5.00
59179;PMS7003;44956;52.422;20.818;2023-06-26T09:45:36;9.00;7.00;4.50
59179;PMS7003;44956;52.422;20.818;2023-06-26T09:48:39;7.50;7.50;4.25
59179;PMS7003;44956;52.422;20.818;2023-06-26T09:51:42;6.00;6.00;3.75
59179;PMS7003;44956;52.422;20.818;2023-06-26T09:54:45;5.00;5.00;3.50
59179;PMS7003;44956;52.422;20.818;2023-06-26T09:57:49;6.20;5.40;3.00
59179;PMS7003;44956;52.422;20.818;2023-06-26T10:00:52;5.40;5.40;3.00
59179;PMS7003;44956;52.422;20.818;2023-06-26T10:03:55;3.50;3.50;2.25
59179;PMS7003;44956;52.422;20.818;2023-06-26T10:07:01;3.00;3.00;2.80
59179;PMS7003;44956;52.422;20.818;2023-06-26T10:10:06;4.20;4.20;2.20
59179;PMS7003;44956;52.422;20.818;2023-06-26T10:13:11;3.20;3.20;1.80
59179;PMS7003;44956;52.422;20.818;2023-06-26T10:16:22;2.20;2.20;1.20
59179;PMS7003;44956;52.422;20.818;2023-06-26T10:19:32;5.40;4.00;2.00
59179;PMS7003;44956;52.422;20.818;2023-06-26T10:22:38;2.40;2.40;0.80
59179;PMS7003;44956;52.422;20.818;2023-06-26T10:25:44;5.00;5.00;3.60
59179;PMS7003;44956;52.422;20.818;2023-06-26T10:28:48;6.00;6.00;4.60
59179;PMS7003;44956;52.422;20.818;2023-06-26T10:31:55;6.00;6.00;3.80
59179;PMS7003;44956;52.422;20.818;2023-06-26T10:34:59;6.80;6.20;4.00
59179;PMS7003;44956;52.422;20.818;2023-06-26T10:38:05;6.80;6.00;4.00
59179;PMS7003;44956;52.422;20.818;2023-06-26T10:41:12;6.80;6.80;4.80
59179;PMS7003;44956;52.422;20.818;2023-06-26T10:44:17;5.00;5.00;3.00
59179;PMS7003;44956;52.422;20.818;2023-06-26T10:47:30;8.00;8.00;5.00
59179;PMS7003;44956;52.422;20.818;2023-06-26T10:50:34;6.60;6.60;4.00
59179;PMS7003;44956;52.422;20.818;2023-06-26T10:53:37;5.60;5.40;4.00
59179;PMS7003;44956;52.422;20.818;2023-06-26T10:56:42;4.20;4.20;3.00
59179;PMS7003;44956;52.422;20.818;2023-06-26T10:59:46;5.00;5.00;3.40
59179;PMS7003;44956;52.422;20.818;2023-06-26T11:02:50;4.60;4.60;3.00
59179;PMS7003;44956;52.422;20.818;2023-06-26T11:06:17;7.00;5.40;3.80
59179;PMS7003;44956;52.422;20.818;2023-06-26T11:09:18;5.40;5.40;3.80
59179;PMS7003;44956;52.422;20.818;2023-06-26T11:15:46;5.00;4.20;4.20
59179;PMS7003;44956;52.422;20.818;2023-06-26T11:18:49;6.20;6.20;5.00
59179;PMS7003;44956;52.422;20.818;2023-06-26T11:21:52;5.60;5.60;4.00
59179;PMS7003;44956;52.422;20.818;2023-06-26T11:24:55;6.00;6.00;4.00
59179;PMS7003;44956;52.422;20.818;2023-06-26T11:28:02;7.40;7.20;5.00
59179;PMS7003;44956;52.422;20.818;2023-06-26T11:31:06;4.80;4.80;2.20
59179;PMS7003;44956;52.422;20.818;2023-06-26T11:34:10;7.60;6.40;4.40
59179;PMS7003;44956;52.422;20.818;2023-06-26T11:37:17;6.40;6.40;4.60
59179;PMS7003;44956;52.422;20.818;2023-06-26T11:40:20;5.60;5.60;3.80
59179;PMS7003;44956;52.422;20.818;2023-06-26T11:43:24;8.00;7.20;4.40
59179;PMS7003;44956;52.422;20.818;2023-06-26T11:46:26;6.40;6.40;4.00
59179;PMS7003;44956;52.422;20.818;2023-06-26T11:49:29;6.20;6.20;3.60
59179;PMS7003;44956;52.422;20.818;2023-06-26T11:52:32;5.00;5.00;4.00
59179;PMS7003;44956;52.422;20.818;2023-06-26T11:55:40;5.40;5.00;3.20
59179;PMS7003;44956;52.422;20.818;2023-06-26T11:59:01;9.00;6.40;4.80
59179;PMS7003;44956;52.422;20.818;2023-06-26T12:02:13;7.00;7.00;4.40
59179;PMS7003;44956;52.422;20.818;2023-06-26T12:05:17;7.60;6.00;4.00
59179;PMS7003;44956;52.422;20.818;2023-06-26T12:08:20;7.20;7.20;4.40
59179;PMS7003;44956;52.422;20.818;2023-06-26T12:11:23;7.00;6.40;4.20
59179;PMS7003;44956;52.422;20.818;2023-06-26T12:14:29;6.00;6.00;4.00
59179;PMS7003;44956;52.422;20.818;2023-06-26T12:17:32;7.60;7.00;4.60
59179;PMS7003;44956;52.422;20.818;2023-06-26T12:20:39;7.00;7.00;4.80
59179;PMS7003;44956;52.422;20.818;2023-06-26T12:23:42;6.80;5.80;4.40
59179;PMS7003;44956;52.422;20.818;2023-06-26T12:26:46;6.20;6.20;4.00
59179;PMS7003;44956;52.422;20.818;2023-06-26T12:29:52;6.80;6.80;4.20
59179;PMS7003;44956;52.422;20.818;2023-06-26T12:32:56;5.40;5.40;3.00
59179;PMS7003;44956;52.422;20.818;2023-06-26T12:35:59;6.00;6.00;4.40
59179;PMS7003;44956;52.422;20.818;2023-06-26T12:39:02;6.00;6.00;4.00
59179;PMS7003;44956;52.422;20.818;2023-06-26T12:42:05;5.00;5.00;3.80
59179;PMS7003;44956;52.422;20.818;2023-06-26T12:45:12;8.00;6.00;5.00
59179;PMS7003;44956;52.422;20.818;2023-06-26T12:51:49;7.00;7.00;4.80
59179;PMS7003;44956;52.422;20.818;2023-06-26T12:54:55;6.20;6.20;4.00
59179;PMS7003;44956;52.422;20.818;2023-06-26T12:57:58;7.20;5.40;4.20
59179;PMS7003;44956;52.422;20.818;2023-06-26T13:01:05;7.60;6.00;3.00
59179;PMS7003;44956;52.422;20.818;2023-06-26T13:04:27;6.00;6.00;3.00
59179;PMS7003;44956;52.422;20.818;2023-06-26T13:07:30;5.00;5.00;3.00
59179;PMS7003;44956;52.422;20.818;2023-06-26T13:10:34;5.20;5.20;3.80
59179;PMS7003;44956;52.422;20.818;2023-06-26T13:13:38;7.00;7.00;4.40
59179;PMS7003;44956;52.422;20.818;2023-06-26T13:16:40;7.40;7.40;4.00
59179;PMS7003;44956;52.422;20.818;2023-06-26T13:19:43;8.20;7.00;4.00
59179;PMS7003;44956;52.422;20.818;2023-06-26T13:22:46;5.00;5.00;4.00
59179;PMS7003;44956;52.422;20.818;2023-06-26T13:25:49;6.80;5.20;3.40
59179;PMS7003;44956;52.422;20.818;2023-06-26T13:28:52;6.00;6.00;4.80
59179;PMS7003;44956;52.422;20.818;2023-06-26T13:31:56;7.40;7.40;3.60
59179;PMS7003;44956;52.422;20.818;2023-06-26T13:34:58;4.40;4.40;2.60
59179;PMS7003;44956;52.422;20.818;2023-06-26T13:38:01;4.20;4.20;2.60
59179;PMS7003;44956;52.422;20.818;2023-06-26T13:41:04;5.80;5.00;4.00
59179;PMS7003;44956;52.422;20.818;2023-06-26T13:44:07;6.40;6.40;3.20
59179;PMS7003;44956;52.422;20.818;2023-06-26T13:47:15;6.75;6.75;3.75
59179;PMS7003;44956;52.422;20.818;2023-06-26T13:50:18;6.50;5.50;3.50
59179;PMS7003;44956;52.422;20.818;2023-06-26T13:53:21;7.00;5.25;4.00
59179;PMS7003;44956;52.422;20.818;2023-06-26T13:56:24;8.00;8.00;5.25
59179;PMS7003;44956;52.422;20.818;2023-06-26T13:59:26;6.25;6.25;4.25
59179;PMS7003;44956;52.422;20.818;2023-06-26T14:02:30;6.00;6.00;4.50
59179;PMS7003;44956;52.422;20.818;2023-06-26T14:05:33;8.00;8.00;5.75
59179;PMS7003;44956;52.422;20.818;2023-06-26T14:08:36;7.00;7.00;3.50
59179;PMS7003;44956;52.422;20.818;2023-06-26T14:11:39;7.00;7.00;5.00
59179;PMS7003;44956;52.422;20.818;2023-06-26T14:14:42;6.00;6.00;3.00
59179;PMS7003;44956;52.422;20.818;2023-06-26T14:17:45;6.00;6.00;4.00
59179;PMS7003;44956;52.422;20.818;2023-06-26T14:20:50;7.75;7.75;5.00
59179;PMS7003;44956;52.422;20.818;2023-06-26T14:23:52;9.25;9.00;6.00
59179;PMS7003;44956;52.422;20.818;2023-06-26T14:26:56;8.25;7.00;5.25
59179;PMS7003;44956;52.422;20.818;2023-06-26T14:29:58;10.00;7.00;5.00
59179;PMS7003;44956;52.422;20.818;2023-06-26T14:33:01;6.75;5.00;4.00
59179;PMS7003;44956;52.422;20.818;2023-06-26T14:36:04;9.00;9.00;4.75
59179;PMS7003;44956;52.422;20.818;2023-06-26T14:39:07;7.00;7.00;5.00
59179;PMS7003;44956;52.422;20.818;2023-06-26T14:42:10;7.75;7.75;4.75
59179;PMS7003;44956;52.422;20.818;2023-06-26T14:45:13;7.00;7.00;5.00
59179;PMS7003;44956;52.422;20.818;2023-06-26T14:48:16;6.75;6.25;4.50
59179;PMS7003;44956;52.422;20.818;2023-06-26T14:51:19;6.75;6.50;4.75
59179;PMS7003;44956;52.422;20.818;2023-06-26T14:54:21;7.25;6.50;5.00
59179;PMS7003;44956;52.422;20.818;2023-06-26T14:57:24;7.00;7.00;5.00
59179;PMS7003;44956;52.422;20.818;2023-06-26T15:00:27;10.00;8.00;5.00
59179;PMS7003;44956;52.422;20.818;2023-06-26T15:03:30;6.00;6.00;4.25
59179;PMS7003;44956;52.422;20.818;2023-06-26T15:06:32;7.00;7.00;5.00
59179;PMS7003;44956;52.422;20.818;2023-06-26T15:09:36;7.50;7.25;5.50
59179;PMS7003;44956;52.422;20.818;2023-06-26T15:12:38;7.50;7.50;5.00
59179;PMS7003;44956;52.422;20.818;2023-06-26T15:15:41;7.50;6.25;4.25
59179;PMS7003;44956;52.422;20.818;2023-06-26T15:18:44;6.00;6.00;5.00
59179;PMS7003;44956;52.422;20.818;2023-06-26T15:21:46;10.00;8.00;5.00
59179;PMS7003;44956;52.422;20.818;2023-06-26T15:24:49;6.50;6.50;5.25
59179;PMS7003;44956;52.422;20.818;2023-06-26T15:27:52;8.00;8.00;6.00
59179;PMS7003;44956;52.422;20.818;2023-06-26T15:30:54;7.50;7.50;5.25
59179;PMS7003;44956;52.422;20.818;2023-06-26T15:33:57;8.00;8.00;6.00
59179;PMS7003;44956;52.422;20.818;2023-06-26T15:37:00;9.75;9.75;6.50
59179;PMS7003;44956;52.422;20.818;2023-06-26T15:40:03;9.00;7.50;5.00
59179;PMS7003;44956;52.422;20.818;2023-06-26T15:43:06;7.00;7.00;5.50
59179;PMS7003;44956;52.422;20.818;2023-06-26T15:46:09;9.00;9.00;5.75
59179;PMS7003;44956;52.422;20.818;2023-06-26T15:49:11;8.25;8.25;6.00
59179;PMS7003;44956;52.422;20.818;2023-06-26T15:52:14;8.00;7.00;4.75
59179;PMS7003;44956;52.422;20.818;2023-06-26T15:55:17;8.25;8.25;6.00
59179;PMS7003;44956;52.422;20.818;2023-06-26T15:58:20;7.75;7.50;5.00
59179;PMS7003;44956;52.422;20.818;2023-06-26T16:01:23;7.50;7.50;4.00
59179;PMS7003;44956;52.422;20.818;2023-06-26T16:04:28;8.25;8.25;5.25
59179;PMS7003;44956;52.422;20.818;2023-06-26T16:07:33;8.00;6.00;3.75
59179;PMS7003;44956;52.422;20.818;2023-06-26T16:10:56;11.25;10.00;6.00
59179;PMS7003;44956;52.422;20.818;2023-06-26T16:13:59;8.75;8.75;6.25
59179;PMS7003;44956;52.422;20.818;2023-06-26T16:17:03;9.25;9.25;6.00
59179;PMS7003;44956;52.422;20.818;2023-06-26T16:20:07;8.50;8.50;6.00
59179;PMS7003;44956;52.422;20.818;2023-06-26T16:23:13;10.00;10.00;7.75
59179;PMS7003;44956;52.422;20.818;2023-06-26T16:26:16;11.25;11.25;7.75
59179;PMS7003;44956;52.422;20.818;2023-06-26T16:29:20;15.00;13.67;9.00
59179;PMS7003;44956;52.422;20.818;2023-06-26T16:32:22;12.33;10.33;6.67
59179;PMS7003;44956;52.422;20.818;2023-06-26T16:35:28;11.33;11.00;8.00
59179;PMS7003;44956;52.422;20.818;2023-06-26T16:38:36;9.00;9.00;7.00
59179;PMS7003;44956;52.422;20.818;2023-06-26T16:41:40;10.00;10.00;7.00
59179;PMS7003;44956;52.422;20.818;2023-06-26T16:44:43;9.33;9.33;6.00
59179;PMS7003;44956;52.422;20.818;2023-06-26T16:47:46;10.33;9.33;6.67
59179;PMS7003;44956;52.422;20.818;2023-06-26T16:50:48;7.67;7.67;6.67
59179;PMS7003;44956;52.422;20.818;2023-06-26T16:53:52;10.33;10.33;7.33
59179;PMS7003;44956;52.422;20.818;2023-06-26T16:56:55;10.00;10.00;6.00
59179;PMS7003;44956;52.422;20.818;2023-06-26T17:00:00;11.00;10.00;7.67
59179;PMS7003;44956;52.422;20.818;2023-06-26T17:03:04;8.00;7.50;6.00
59179;PMS7003;44956;52.422;20.818;2023-06-26T17:06:07;10.67;10.67;7.33
59179;PMS7003;44956;52.422;20.818;2023-06-26T17:09:11;11.00;11.00;8.00
59179;PMS7003;44956;52.422;20.818;2023-06-26T17:12:14;11.00;11.00;8.67
59179;PMS7003;44956;52.422;20.818;2023-06-26T17:15:17;10.00;10.00;7.33
59179;PMS7003;44956;52.422;20.818;2023-06-26T17:18:20;13.00;11.67;8.00
59179;PMS7003;44956;52.422;20.818;2023-06-26T17:21:23;13.00;11.67;7.00
59179;PMS7003;44956;52.422;20.818;2023-06-26T17:24:25;11.00;11.00;8.33
59179;PMS7003;44956;52.422;20.818;2023-06-26T17:27:32;9.67;8.33;6.00
59179;PMS7003;44956;52.422;20.818;2023-06-26T17:30:36;10.67;10.67;7.00
59179;PMS7003;44956;52.422;20.818;2023-06-26T17:33:41;14.00;13.33;9.00
59179;PMS7003;44956;52.422;20.818;2023-06-26T17:36:44;11.33;11.33;8.00
59179;PMS7003;44956;52.422;20.818;2023-06-26T17:39:47;13.00;13.00;9.00